Time;durP1;ratioP1;P1;durP2;ratioP2;P2;SDS_P1;SDS_P2;PMS_P1;PMS_P2;Temp;Humidity;BMP_temperature;BMP_pressure;BME280_temperature;BME280_humidity;BME280_pressure;Samples;Min_cycle;Max_cycle;Signal;HPM_P1;HPM_P2
2022/11/27 00:01:22;;;;;;;13.93;8.10;;;;;;;;;;5050861;28;20128;-86
2022/11/27 00:03:48;;;;;;;12.23;6.43;;;;;;;;;;5031088;28;20036;-83
2022/11/27 00:06:14;;;;;;;13.68;7.40;;;;;;;;;;5032617;28;20041;-85
2022/11/27 00:08:40;;;;;;;16.05;8.52;;;;;;;;;;5052513;28;20048;-84
2022/11/27 00:11:09;;;;;;;15.13;7.85;;;;;;;;;;5035298;28;20036;-86
2022/11/27 00:13:35;;;;;;;13.38;7.90;;;;;;;;;;5035248;28;20037;-85
2022/11/27 00:16:00;;;;;;;14.05;7.68;;;;;;;;;;5052261;28;20029;-84
2022/11/27 00:18:25;;;;;;;12.97;7.03;;;;;;;;;;5015280;28;20064;-85
2022/11/27 00:20:51;;;;;;;11.60;6.97;;;;;;;;;;5016620;28;20314;-85
2022/11/27 00:23:16;;;;;;;18.63;8.57;;;;;;;;;;5060211;28;20287;-85
2022/11/27 00:25:48;;;;;;;17.02;8.60;;;;;;;;;;5032377;28;20037;-85
2022/11/27 00:28:13;;;;;;;17.05;7.78;;;;;;;;;;5052436;28;20044;-85
2022/11/27 00:30:38;;;;;;;13.47;8.10;;;;;;;;;;5035966;28;20518;-84
2022/11/27 00:33:04;;;;;;;14.20;7.77;;;;;;;;;;5036057;28;20098;-85
2022/11/27 00:35:29;;;;;;;13.50;8.10;;;;;;;;;;5056881;28;20033;-85
2022/11/27 00:37:54;;;;;;;16.17;8.57;;;;;;;;;;5048095;28;20272;-86
2022/11/27 00:40:19;;;;;;;13.20;8.27;;;;;;;;;;5064982;28;20097;-84
2022/11/27 00:42:44;;;;;;;16.27;8.97;;;;;;;;;;5046284;28;20029;-86
2022/11/27 00:45:10;;;;;;;17.52;9.25;;;;;;;;;;5047650;28;20463;-85
2022/11/27 00:47:35;;;;;;;15.27;8.53;;;;;;;;;;5024649;28;20083;-86
2022/11/27 00:50:00;;;;;;;20.03;8.77;;;;;;;;;;5032870;28;20036;-86
2022/11/27 00:52:25;;;;;;;11.50;7.53;;;;;;;;;;5038975;28;20263;-84
2022/11/27 00:54:50;;;;;;;12.17;7.07;;;;;;;;;;5056108;28;20067;-86
2022/11/27 00:57:15;;;;;;;12.37;7.43;;;;;;;;;;5056409;28;20040;-84
2022/11/27 00:59:41;;;;;;;13.57;6.73;;;;;;;;;;5046262;28;20094;-83
2022/11/27 01:02:06;;;;;;;10.30;6.63;;;;;;;;;;5054084;28;20055;-84
2022/11/27 01:04:31;;;;;;;11.87;6.07;;;;;;;;;;5032910;28;20275;-83
2022/11/27 01:06:56;;;;;;;9.90;5.80;;;;;;;;;;5037233;28;20272;-84
2022/11/27 01:09:21;;;;;;;11.43;6.27;;;;;;;;;;5037097;28;20044;-85
2022/11/27 01:11:46;;;;;;;8.60;5.57;;;;;;;;;;5054626;28;20036;-83
2022/11/27 01:14:14;;;;;;;7.67;5.30;;;;;;;;;;5035879;28;20547;-85
2022/11/27 01:16:39;;;;;;;9.55;5.40;;;;;;;;;;5037161;28;20146;-86
2022/11/27 01:19:06;;;;;;;8.68;5.40;;;;;;;;;;5037123;28;20106;-83
2022/11/27 01:21:32;;;;;;;9.02;5.43;;;;;;;;;;5037128;28;20040;-84
2022/11/27 01:23:58;;;;;;;10.18;6.28;;;;;;;;;;5055499;28;20041;-82
2022/11/27 01:26:24;;;;;;;9.77;5.95;;;;;;;;;;5056281;28;20033;-83
2022/11/27 01:28:50;;;;;;;9.93;6.40;;;;;;;;;;5039719;28;20029;-83
2022/11/27 01:31:26;;;;;;;9.75;5.90;;;;;;;;;;5036929;28;20041;-83
2022/11/27 01:33:56;;;;;;;9.43;5.63;;;;;;;;;;5044609;28;20029;-82
2022/11/27 01:36:21;;;;;;;8.02;5.43;;;;;;;;;;5036849;28;20040;-83
2022/11/27 01:38:47;;;;;;;10.68;6.63;;;;;;;;;;5036022;28;20044;-83
2022/11/27 01:41:17;;;;;;;11.82;6.20;;;;;;;;;;5028135;28;20029;-83
2022/11/27 01:43:47;;;;;;;7.63;5.18;;;;;;;;;;5051931;28;20529;-83
2022/11/27 01:46:30;;;;;;;11.98;6.60;;;;;;;;;;5035509;28;20071;-83
2022/11/27 01:49:01;;;;;;;8.27;5.70;;;;;;;;;;5035693;28;20097;-83
2022/11/27 01:51:27;;;;;;;11.60;6.65;;;;;;;;;;5049893;28;20037;-83
2022/11/27 01:53:53;;;;;;;10.60;6.25;;;;;;;;;;5039779;28;20035;-82
2022/11/27 01:56:19;;;;;;;10.05;6.03;;;;;;;;;;5043108;28;20041;-83
2022/11/27 01:58:44;;;;;;;9.88;6.28;;;;;;;;;;5063030;28;20045;-83
2022/11/27 02:01:09;;;;;;;12.60;6.40;;;;;;;;;;5067222;28;20075;-83
2022/11/27 02:03:35;;;;;;;10.57;6.30;;;;;;;;;;5047107;28;20254;-84
2022/11/27 02:06:00;;;;;;;8.32;5.60;;;;;;;;;;5060718;28;20083;-83
2022/11/27 02:08:25;;;;;;;13.23;7.00;;;;;;;;;;5049650;28;20036;-82
2022/11/27 02:11:16;;;;;;;9.20;6.00;;;;;;;;;;5064317;28;20283;-84
2022/11/27 02:13:42;;;;;;;;;;;;;;;;;;5047227;28;20037;-83
2022/11/27 02:16:25;;;;;;;10.52;5.82;;;;;;;;;;5067633;28;19916;-84
2022/11/27 02:18:59;;;;;;;9.35;5.53;;;;;;;;;;5048119;28;20060;-83
2022/11/27 02:21:30;;;;;;;8.30;5.50;;;;;;;;;;5033239;28;20048;-83
2022/11/27 02:24:01;;;;;;;11.57;6.60;;;;;;;;;;5050378;28;20037;-84
2022/11/27 02:26:35;;;;;;;9.98;5.72;;;;;;;;;;5031681;28;20140;-84
2022/11/27 02:29:09;;;;;;;10.52;6.55;;;;;;;;;;5046554;28;20128;-83
2022/11/27 02:31:34;;;;;;;9.82;5.63;;;;;;;;;;5026348;28;20037;-86
2022/11/27 02:34:05;;;;;;;8.97;5.47;;;;;;;;;;5022031;28;20025;-86
2022/11/27 02:36:30;;;;;;;;;;;;;;;;;;5033458;28;20282;-85
2022/11/27 02:39:00;;;;;;;6.22;4.20;;;;;;;;;;5033394;28;19913;-85
2022/11/27 02:41:28;;;;;;;6.22;4.43;;;;;;;;;;5034050;28;20045;-85
2022/11/27 02:43:54;;;;;;;7.97;4.25;;;;;;;;;;5024981;28;20043;-86
2022/11/27 02:46:20;;;;;;;9.95;5.63;;;;;;;;;;5028767;28;20065;-85
2022/11/27 02:48:50;;;;;;;10.60;6.22;;;;;;;;;;5028177;28;20524;-85
2022/11/27 02:51:18;;;;;;;10.93;6.50;;;;;;;;;;5031390;28;20049;-85
2022/11/27 02:53:47;;;;;;;9.45;6.40;;;;;;;;;;5024216;28;20770;-86
2022/11/27 02:56:15;;;;;;;8.52;5.85;;;;;;;;;;5028007;28;20072;-85
2022/11/27 02:58:40;;;;;;;11.80;7.25;;;;;;;;;;5045826;28;20063;-86
2022/11/27 03:01:05;;;;;;;;;;;;;;;;;;5032155;28;20041;-86
2022/11/27 03:03:40;;;;;;;12.18;7.55;;;;;;;;;;5031725;28;19927;-85
2022/11/27 03:06:08;;;;;;;11.90;7.10;;;;;;;;;;5027774;28;20068;-86
2022/11/27 03:08:53;;;;;;;12.57;7.97;;;;;;;;;;5032394;28;20036;-86
2022/11/27 03:11:18;;;;;;;9.80;6.80;;;;;;;;;;5031384;28;20429;-86
2022/11/27 03:13:45;;;;;;;8.68;5.38;;;;;;;;;;5032016;28;20079;-86
2022/11/27 03:16:13;;;;;;;9.75;6.28;;;;;;;;;;5031231;28;20641;-85
2022/11/27 03:18:38;;;;;;;7.95;5.32;;;;;;;;;;5049673;28;20064;-85
2022/11/27 03:21:07;;;;;;;7.50;5.10;;;;;;;;;;5031574;28;20037;-85
2022/11/27 03:23:32;;;;;;;6.53;4.38;;;;;;;;;;5049173;28;20044;-85
2022/11/27 03:25:57;;;;;;;5.33;3.80;;;;;;;;;;5029358;28;20542;-86
2022/11/27 03:28:23;;;;;;;6.30;4.20;;;;;;;;;;5040735;28;20634;-85
2022/11/27 03:30:48;;;;;;;6.18;4.38;;;;;;;;;;5031357;28;20036;-86
2022/11/27 03:33:13;;;;;;;5.95;4.20;;;;;;;;;;5048755;28;20071;-86
2022/11/27 03:35:38;;;;;;;4.93;3.50;;;;;;;;;;5048973;28;20431;-86
2022/11/27 03:38:04;;;;;;;5.20;3.60;;;;;;;;;;5026795;28;20064;-86
2022/11/27 03:40:33;;;;;;;5.32;3.67;;;;;;;;;;5026324;28;20047;-86
2022/11/27 03:43:13;;;;;;;4.78;2.97;;;;;;;;;;5026920;28;20057;-86
2022/11/27 03:45:51;;;;;;;7.35;4.88;;;;;;;;;;5038008;28;20507;-86
2022/11/27 03:48:22;;;;;;;5.95;4.22;;;;;;;;;;5029210;28;20037;-86
2022/11/27 03:50:47;;;;;;;;;;;;;;;;;;5025935;28;20120;-86
2022/11/27 03:53:18;;;;;;;5.95;4.40;;;;;;;;;;5028693;28;20035;-87
2022/11/27 03:55:43;;;;;;;;;;;;;;;;;;5016970;28;20049;-87
2022/11/27 03:58:13;;;;;;;6.97;4.72;;;;;;;;;;5042274;28;19923;-87
2022/11/27 04:00:39;;;;;;;6.82;4.72;;;;;;;;;;5040995;28;20377;-84
2022/11/27 04:03:07;;;;;;;7.03;4.95;;;;;;;;;;5042733;28;20064;-84
2022/11/27 04:05:32;;;;;;;6.25;4.30;;;;;;;;;;5038273;28;20131;-85
2022/11/27 04:07:58;;;;;;;12.13;6.55;;;;;;;;;;5030131;28;20171;-84
2022/11/27 04:10:23;;;;;;;8.43;5.53;;;;;;;;;;5021346;28;20529;-84
2022/11/27 04:12:48;;;;;;;6.73;4.47;;;;;;;;;;5047119;28;20060;-84
2022/11/27 04:15:13;;;;;;;14.63;5.10;;;;;;;;;;5028388;28;20296;-84
2022/11/27 04:17:39;;;;;;;6.63;4.53;;;;;;;;;;5028671;28;20444;-84
2022/11/27 04:20:05;;;;;;;5.30;4.20;;;;;;;;;;5030000;28;20037;-85
2022/11/27 04:22:30;;;;;;;4.75;3.70;;;;;;;;;;5029231;28;20033;-86
2022/11/27 04:24:55;;;;;;;9.10;6.40;;;;;;;;;;5039399;28;20037;-86
2022/11/27 04:27:20;;;;;;;6.77;5.33;;;;;;;;;;5026665;28;20399;-86
2022/11/27 04:29:45;;;;;;;6.30;4.67;;;;;;;;;;5030125;28;20295;-86
2022/11/27 04:32:11;;;;;;;6.80;4.70;;;;;;;;;;5046822;28;20033;-86
2022/11/27 04:34:36;;;;;;;6.93;4.68;;;;;;;;;;5046892;28;20271;-87
2022/11/27 04:37:01;;;;;;;9.07;4.53;;;;;;;;;;5030979;28;20398;-86
2022/11/27 04:39:26;;;;;;;12.02;4.80;;;;;;;;;;5049085;28;20650;-86
2022/11/27 04:41:52;;;;;;;8.80;4.80;;;;;;;;;;5048271;28;20477;-85
2022/11/27 04:44:17;;;;;;;;;;;;;;;;;;5030698;28;20985;-86
2022/11/27 04:46:42;;;;;;;9.73;5.33;;;;;;;;;;5024096;28;20572;-84
2022/11/27 04:49:08;;;;;;;9.02;5.45;;;;;;;;;;5050001;28;20514;-85
2022/11/27 04:51:33;;;;;;;8.10;5.00;;;;;;;;;;5031337;28;20462;-85
2022/11/27 04:53:59;;;;;;;6.40;4.23;;;;;;;;;;5028773;28;20037;-84
2022/11/27 04:56:24;;;;;;;10.45;4.93;;;;;;;;;;5030348;28;20112;-84
2022/11/27 04:58:49;;;;;;;13.00;5.75;;;;;;;;;;5045947;28;20034;-84
2022/11/27 05:01:14;;;;;;;13.67;6.43;;;;;;;;;;5043403;28;20037;-84
2022/11/27 05:03:40;;;;;;;20.77;8.77;;;;;;;;;;5042081;28;20296;-84
2022/11/27 05:06:05;;;;;;;11.30;7.85;;;;;;;;;;5031343;28;20043;-84
2022/11/27 05:08:32;;;;;;;25.37;9.63;;;;;;;;;;5031690;28;20033;-85
2022/11/27 05:11:01;;;;;;;14.00;7.47;;;;;;;;;;5032082;28;20053;-86
2022/11/27 05:13:26;;;;;;;11.05;7.90;;;;;;;;;;5032713;28;20053;-85
2022/11/27 05:15:52;;;;;;;10.02;6.70;;;;;;;;;;5035193;28;20137;-86
2022/11/27 05:18:17;;;;;;;12.85;6.95;;;;;;;;;;5053625;28;20051;-84
2022/11/27 05:20:42;;;;;;;8.60;6.13;;;;;;;;;;5034238;28;20648;-84
2022/11/27 05:23:07;;;;;;;8.83;6.70;;;;;;;;;;5034167;28;20618;-84
2022/11/27 05:25:32;;;;;;;15.27;8.87;;;;;;;;;;5027176;28;20044;-83
2022/11/27 05:27:58;;;;;;;15.90;8.20;;;;;;;;;;5034102;28;20413;-83
2022/11/27 05:30:23;;;;;;;8.00;6.22;;;;;;;;;;5029993;28;20068;-84
2022/11/27 05:32:48;;;;;;;7.72;5.80;;;;;;;;;;5032736;28;20041;-83
2022/11/27 05:35:13;;;;;;;9.07;5.73;;;;;;;;;;5034429;28;20511;-84
2022/11/27 05:37:38;;;;;;;10.07;6.38;;;;;;;;;;5051913;28;20040;-83
2022/11/27 05:40:04;;;;;;;7.78;5.63;;;;;;;;;;5047584;28;20065;-83
2022/11/27 05:42:30;;;;;;;7.85;5.75;;;;;;;;;;5030144;28;20692;-84
2022/11/27 05:44:55;;;;;;;9.50;5.70;;;;;;;;;;5032562;28;20041;-83
2022/11/27 05:47:20;;;;;;;7.83;5.53;;;;;;;;;;5026474;28;20045;-84
2022/11/27 05:49:45;;;;;;;10.13;6.37;;;;;;;;;;5047509;28;20041;-84
2022/11/27 05:52:10;;;;;;;6.90;6.00;;;;;;;;;;5051196;28;20424;-84
2022/11/27 05:54:36;;;;;;;11.33;6.27;;;;;;;;;;5035244;28;20383;-84
2022/11/27 05:57:01;;;;;;;12.63;7.28;;;;;;;;;;5052084;28;20825;-84
2022/11/27 05:59:26;;;;;;;15.50;8.77;;;;;;;;;;5044622;28;20048;-85
2022/11/27 06:01:51;;;;;;;16.25;10.18;;;;;;;;;;5030598;28;20702;-84
2022/11/27 06:04:17;;;;;;;23.00;10.60;;;;;;;;;;5031571;28;20039;-86
2022/11/27 06:06:42;;;;;;;15.35;10.48;;;;;;;;;;5029850;28;20282;-86
2022/11/27 06:09:07;;;;;;;15.32;9.73;;;;;;;;;;5024193;28;20120;-84
2022/11/27 06:11:33;;;;;;;29.33;11.80;;;;;;;;;;5051755;28;20033;-84
2022/11/27 06:13:58;;;;;;;15.68;9.48;;;;;;;;;;5048508;28;20033;-83
2022/11/27 06:16:23;;;;;;;15.33;9.53;;;;;;;;;;5034354;28;20041;-84
2022/11/27 06:18:50;;;;;;;12.40;9.35;;;;;;;;;;5034413;28;20276;-84
2022/11/27 06:21:15;;;;;;;14.40;9.57;;;;;;;;;;5030636;28;20403;-84
2022/11/27 06:23:41;;;;;;;12.57;9.13;;;;;;;;;;5048192;28;20044;-84
2022/11/27 06:26:14;;;;;;;17.58;10.23;;;;;;;;;;5043138;28;20738;-84
2022/11/27 06:28:39;;;;;;;17.20;9.20;;;;;;;;;;5028725;28;20049;-86
2022/11/27 06:31:06;;;;;;;13.25;8.85;;;;;;;;;;5025255;28;20064;-86
2022/11/27 06:33:31;;;;;;;15.35;10.25;;;;;;;-145.28;100.00;159598.78;5031570;28;20037;-86
2022/11/27 06:35:56;;;;;;;19.88;10.98;;;;;;;;;;5029235;28;20095;-86
2022/11/27 06:38:22;;;;;;;14.93;8.93;;;;;;;;;;5049397;28;20090;-86
2022/11/27 06:40:47;;;;;;;20.02;9.45;;;;;;;;;;5028351;28;20037;-84
2022/11/27 06:43:12;;;;;;;12.15;7.75;;;;;;;;;;5045959;28;20706;-85
2022/11/27 06:45:37;;;;;;;13.27;8.17;;;;;;;;;;5049327;28;20029;-85
2022/11/27 06:48:03;;;;;;;10.57;7.77;;;;;;;;;;5020354;28;20038;-85
2022/11/27 06:50:28;;;;;;;11.18;8.25;;;;;;;;;;5032349;28;20275;-84
2022/11/27 06:52:53;;;;;;;13.70;9.20;;;;;;;;;;5050124;28;20044;-85
2022/11/27 06:55:18;;;;;;;19.40;9.63;;;;;;;;;;5045117;28;20067;-85
2022/11/27 06:57:44;;;;;;;12.40;8.23;;;;;;;;;;5036474;28;20707;-85
2022/11/27 07:00:09;;;;;;;71.73;14.13;;;;;;;;;;5042865;28;20547;-85
2022/11/27 07:02:34;;;;;;;12.00;8.10;;;;;;;;;;5021222;28;20703;-84
2022/11/27 07:05:00;;;;;;;9.37;6.87;;;;;;;;;;5023646;28;20120;-84
2022/11/27 07:07:25;;;;;;;48.07;10.90;;;;;;;;;;5047401;28;20048;-84
2022/11/27 07:09:50;;;;;;;19.52;9.57;;;;;;;;;;5051924;28;20288;-84
2022/11/27 07:12:15;;;;;;;13.95;8.38;;;;;;;;;;5034351;28;20502;-84
2022/11/27 07:14:41;;;;;;;14.77;8.80;;;;;;;;;;5039145;28;20037;-84
2022/11/27 07:17:06;;;;;;;14.38;9.18;;;;;;;;;;5025837;28;20276;-84
2022/11/27 07:19:31;;;;;;;15.93;10.60;;;;;;;;;;5031124;28;20048;-84
2022/11/27 07:21:56;;;;;;;14.57;9.25;;;;;;;;;;5036760;28;20049;-84
2022/11/27 07:24:22;;;;;;;13.05;8.50;;;;;;;;;;5033685;28;20049;-84
2022/11/27 07:26:47;;;;;;;28.87;10.00;;;;;;;;;;5034718;28;20470;-84
2022/11/27 07:29:12;;;;;;;11.73;7.13;;;;;;;;;;5034499;28;20406;-83
2022/11/27 07:31:38;;;;;;;14.88;7.03;;;;;;;;;;5052959;28;20029;-84
2022/11/27 07:34:03;;;;;;;12.13;6.47;;;;;;;;;;5034623;28;20558;-84
2022/11/27 07:36:29;;;;;;;30.63;10.23;;;;;;;;;;5033830;28;20715;-84
2022/11/27 07:38:54;;;;;;;14.18;9.60;;;;;;;;;;5033203;28;20931;-84
2022/11/27 07:41:20;;;;;;;13.23;9.05;;;;;;;;;;5049653;28;20033;-84
2022/11/27 07:43:45;;;;;;;11.93;8.05;;;;;;;;;;5032163;28;20067;-83
2022/11/27 07:46:13;;;;;;;13.05;7.78;;;;;;;;;;5028166;28;20041;-83
2022/11/27 07:48:39;;;;;;;11.23;7.97;;;;;;;;;;5047212;28;20075;-84
2022/11/27 07:51:04;;;;;;;15.82;8.40;;;;;;;;;;5031151;28;20107;-84
2022/11/27 07:53:30;;;;;;;15.48;8.75;;;;;;;;;;5031997;28;20033;-84
2022/11/27 07:55:57;;;;;;;16.10;8.87;;;;;;;;;;5033565;28;20484;-84
2022/11/27 07:58:23;;;;;;;11.68;8.05;;;;;;;;;;5029918;28;20041;-84
2022/11/27 08:00:48;;;;;;;13.83;8.90;;;;;;;;;;5029683;28;20040;-84
2022/11/27 08:03:15;;;;;;;12.67;8.17;;;;;;;;;;5049886;28;20065;-83
2022/11/27 08:05:41;;;;;;;14.70;9.23;;;;;;;;;;5034832;28;20171;-84
2022/11/27 08:08:07;;;;;;;13.35;9.15;;;;;;;;;;5050482;28;20457;-84
2022/11/27 08:10:36;;;;;;;14.17;9.60;;;;;;;;;;5024624;28;20044;-84
2022/11/27 08:13:01;;;;;;;18.15;10.10;;;;;;;;;;5031783;28;20025;-84
2022/11/27 08:15:27;;;;;;;29.88;12.32;;;;;;;;;;5034712;28;20059;-84
2022/11/27 08:17:52;;;;;;;19.50;11.27;;;;;;;;;;5053077;28;20043;-84
2022/11/27 08:20:19;;;;;;;16.33;9.85;;;;;;;;;;5052064;28;20045;-84
2022/11/27 08:22:44;;;;;;;17.00;10.90;;;;;;;;;;5033765;28;20082;-84
2022/11/27 08:25:09;;;;;;;21.98;12.20;;;;;;;;;;5033625;28;20296;-84
2022/11/27 08:27:35;;;;;;;18.33;10.77;;;;;;;;;;5029462;28;20087;-83
2022/11/27 08:30:00;;;;;;;26.25;12.73;;;;;;;;;;5032444;28;20037;-84
2022/11/27 08:32:25;;;;;;;12.75;8.90;;;;;;;;;;5030929;28;20037;-84
2022/11/27 08:34:51;;;;;;;28.00;11.00;;;;;;;;;;5030361;28;20033;-84
2022/11/27 08:37:16;;;;;;;20.17;11.20;;;;;;;;;;5052059;28;20499;-84
2022/11/27 08:39:41;;;;;;;13.97;10.17;;;;;;;;;;5050686;28;20502;-84
2022/11/27 08:42:06;;;;;;;21.50;12.02;;;;;;;;;;5029965;28;20037;-84
2022/11/27 08:44:32;;;;;;;;;;;;;;;;;;5032533;28;20047;-84
2022/11/27 08:46:57;;;;;;;13.95;9.57;;;;;;;;;;5029609;28;20036;-84
2022/11/27 08:49:22;;;;;;;14.90;10.07;;;;;;;;;;5034542;28;20073;-84
2022/11/27 08:51:47;;;;;;;13.33;10.40;;;;;;;;;;5035428;28;20424;-84
2022/11/27 08:54:12;;;;;;;10.30;8.30;;;;;;;;;;5051787;28;20409;-84
2022/11/27 08:56:38;;;;;;;11.03;8.00;;;;;;;;;;5034967;28;20902;-84
2022/11/27 08:59:03;;;;;;;;;;;;;;;;;;5034056;28;20060;-84
2022/11/27 09:01:28;;;;;;;;;;;;;;;;;;5035073;28;19917;-86
2022/11/27 09:03:54;;;;;;;17.35;11.25;;;;;;;;;;5031806;28;19928;-86
2022/11/27 09:06:21;;;;;;;16.08;10.98;;;;;;;;;;5022972;28;20128;-85
2022/11/27 09:08:47;;;;;;;14.18;10.02;;;;;;;;;;5051272;28;20478;-84
2022/11/27 09:11:13;;;;;;;13.30;8.65;;;;;;;;;;5051586;28;20037;-84
2022/11/27 09:13:39;;;;;;;13.88;9.98;;;;;;;;;;5049597;28;20815;-85
2022/11/27 09:16:05;;;;;;;14.13;9.50;;;;;;;;;;5037004;28;20047;-86
2022/11/27 09:18:30;;;;;;;20.40;10.63;;;;;;;;;;5023744;28;20559;-85
2022/11/27 09:20:56;;;;;;;29.77;18.73;;;;;;;;;;5022020;28;20033;-86
2022/11/27 09:23:21;;;;;;;20.38;14.57;;;;;;;;;;5042138;28;20045;-85
2022/11/27 09:25:48;;;;;;;20.42;12.90;;;;;;;;;;5034584;28;20056;-85
2022/11/27 09:28:13;;;;;;;18.48;11.48;;;;;;;;;;5031787;28;20464;-86
2022/11/27 09:30:38;;;;;;;20.25;12.70;;;;;;;;;;5028565;28;20092;-86
2022/11/27 09:33:04;;;;;;;20.37;10.97;;;;;;;;;;5027533;28;20040;-86
2022/11/27 09:35:29;;;;;;;18.93;11.07;;;;;;;;;;5029574;28;20604;-86
2022/11/27 09:37:54;;;;;;;17.17;11.17;;;;;;;;;;5030066;28;20495;-87
2022/11/27 09:40:19;;;;;;;14.85;10.00;;;;;;;;;;5050153;28;20063;-86
2022/11/27 09:42:51;;;;;;;23.17;11.05;;;;;;;;;;5048463;28;20052;-87
2022/11/27 09:45:16;;;;;;;16.85;11.00;;;;;;;;;;5032650;28;20056;-86
2022/11/27 09:47:58;;;;;;;19.13;11.48;;;;;;;;;;5050312;28;20094;-87
2022/11/27 09:50:26;;;;;;;16.55;9.80;;;;;;;;;;5049047;28;20066;-87
2022/11/27 09:52:54;;;;;;;17.33;10.73;;;;;;;;;;5027285;28;20037;-86
2022/11/27 09:55:23;;;;;;;19.52;11.15;;;;;;;;;;5046317;28;20041;-85
2022/11/27 09:57:59;;;;;;;13.27;9.95;;;;;;;;;;5045535;28;20894;-87
2022/11/27 10:00:25;;;;;;;16.63;11.57;;;;;;;;;;5042835;28;20098;-87
2022/11/27 10:02:50;;;;;;;16.40;10.57;;;;;;;;;;5029256;28;20452;-87
2022/11/27 10:05:25;;;;;;;18.27;10.20;;;;;;;;;;5030641;28;20037;-87
2022/11/27 10:07:59;;;;;;;17.65;11.27;;;;;;;;;;5051256;28;20094;-87
2022/11/27 10:10:33;;;;;;;17.98;11.98;;;;;;;;;;5032162;28;20110;-87
2022/11/27 10:13:04;;;;;;;17.27;11.40;;;;;;;;;;5029634;28;20044;-87
2022/11/27 10:15:35;;;;;;;14.77;9.52;;;;;;;;;;5016886;28;20057;-87
2022/11/27 10:18:00;;;;;;;;;;;;;;;;;;5027121;28;20021;-87
2022/11/27 10:20:30;;;;;;;17.33;11.02;;;;;;;;;;5021290;28;19913;-87
2022/11/27 10:23:03;;;;;;;14.63;10.20;;;;;;;;;;5032107;28;20033;-87
2022/11/27 10:25:40;;;;;;;16.80;9.75;;;;;;;;;;5049966;28;20111;-87
2022/11/27 10:28:14;;;;;;;21.02;12.77;;;;;;;;;;5015124;28;20620;-87
2022/11/27 10:30:49;;;;;;;17.95;11.35;;;;;;;;;;5029142;28;20060;-87
2022/11/27 10:33:17;;;;;;;16.67;10.52;;;;;;;;;;5038124;28;20038;-87
2022/11/27 10:35:43;;;;;;;17.30;10.23;;;;;;;;;;5048833;28;20045;-87
2022/11/27 10:38:11;;;;;;;17.33;10.40;;;;;;;;;;5047859;28;20048;-88
2022/11/27 10:40:59;;;;;;;16.08;11.18;;;;;;;;;;5032509;28;20029;-87
2022/11/27 10:43:24;;;;;;;17.00;10.77;;;;;;;;;;5029166;28;20037;-87
2022/11/27 10:46:08;;;;;;;17.05;10.85;;;;;;;;;;5028269;28;20036;-87
2022/11/27 10:48:33;;;;;;;17.98;11.48;;;;;;;;;;5046508;28;20112;-87
2022/11/27 10:50:59;;;;;;;16.42;10.98;;;;;;;;;;5046410;28;20479;-87
2022/11/27 10:53:24;;;;;;;16.67;11.00;;;;;;;;;;5029610;28;20055;-87
2022/11/27 10:55:50;;;;;;;19.85;12.05;;;;;;;;;;5030895;28;20706;-87
2022/11/27 10:58:24;;;;;;;22.20;12.57;;;;;;;;;;5027793;28;20076;-87
2022/11/27 11:01:04;;;;;;;20.83;12.60;;;;;;;;;;5024175;28;20036;-87
2022/11/27 11:03:29;;;;;;;18.33;11.38;;;;;;;;;;5040623;28;20128;-87
2022/11/27 11:06:00;;;;;;;14.83;9.67;;;;;;;;;;5047745;28;20453;-88
2022/11/27 11:08:25;;;;;;;;;;;;;;;;;;5029861;28;20275;-87
2022/11/27 11:10:50;;;;;;;;;;;;;;;;;;5043748;28;20306;-87
2022/11/27 11:13:27;;;;;;;14.00;9.15;;;;;;;;;;5028786;28;19978;-87
2022/11/27 11:15:52;;;;;;;14.73;10.80;;;;;;;;;;5044710;28;20037;-88
2022/11/27 11:18:22;;;;;;;15.83;10.43;;;;;;;;;;5042122;28;20098;-87
2022/11/27 11:20:52;;;;;;;14.93;10.73;;;;;;;;;;5041530;28;20510;-88
2022/11/27 11:23:23;;;;;;;17.95;12.10;;;;;;;;;;5028208;28;20524;-86
2022/11/27 11:25:50;;;;;;;16.45;11.32;;;;;;;;;;5027285;28;20127;-86
2022/11/27 11:28:17;;;;;;;16.73;11.48;;;;;;;;;;5028723;28;20184;-88
2022/11/27 11:30:51;;;;;;;16.10;10.88;;;;;;;;;;5027134;28;20044;-86
2022/11/27 11:33:16;;;;;;;16.88;11.68;;;;;;;;;;5028604;28;20048;-86
2022/11/27 11:35:49;;;;;;;16.00;10.63;;;;;;;;;;5028335;28;20717;-86
2022/11/27 11:38:17;;;;;;;14.52;10.43;;;;;;;;;;5027490;28;20504;-86
2022/11/27 11:40:45;;;;;;;13.60;10.05;;;;;;;;;;5029757;28;20161;-86
2022/11/27 11:43:22;;;;;;;16.33;10.95;;;;;;;;;;5023594;28;20033;-86
2022/11/27 11:45:47;;;;;;;15.68;10.80;;;;;;;;;;5045867;28;20033;-86
2022/11/27 11:48:15;;;;;;;15.88;11.13;;;;;;;;;;5028670;28;20044;-87
2022/11/27 11:50:46;;;;;;;16.38;11.02;;;;;;;;;;5028978;28;20056;-86
2022/11/27 11:53:17;;;;;;;14.07;10.32;;;;;;;;;;5028467;28;20044;-86
2022/11/27 11:55:56;;;;;;;14.73;10.53;;;;;;;;;;5026723;28;20040;-86
2022/11/27 11:58:34;;;;;;;18.08;12.02;;;;;;;;;;5029899;28;20041;-87
2022/11/27 12:01:07;;;;;;;15.95;10.77;;;;;;;;;;5028993;28;20524;-86
2022/11/27 12:03:56;;;;;;;15.32;10.43;;;;;;;;;;5025729;28;20133;-87
2022/11/27 12:06:21;;;;;;;17.08;11.95;;;;;;;;;;5027408;28;20640;-86
2022/11/27 12:08:55;;;;;;;16.00;10.53;;;;;;;;;;5023899;28;20355;-86
2022/11/27 12:11:36;;;;;;;13.10;9.13;;;;;;;;;;5028824;28;20037;-86
2022/11/27 12:14:07;;;;;;;13.45;9.05;;;;;;;;;;5045846;28;20518;-85
2022/11/27 12:16:47;;;;;;;18.45;12.27;;;;;;;;;;5041401;28;20128;-86
2022/11/27 12:19:12;;;;;;;17.48;12.10;;;;;;;;;;5024116;28;20127;-87
2022/11/27 12:21:53;;;;;;;16.43;11.87;;;;;;;;;;5027768;28;20112;-88
2022/11/27 12:24:30;;;;;;;16.23;11.23;;;;;;;;;;5040662;28;20041;-86
2022/11/27 12:27:20;;;;;;;17.17;11.98;;;;;;;;;;5028276;28;20037;-86
2022/11/27 12:29:48;;;;;;;19.95;13.00;;;;;;;;;;5042307;28;20143;-86
2022/11/27 12:32:28;;;;;;;16.77;11.63;;;;;;;;;;5042615;28;20163;-86
2022/11/27 12:34:54;;;;;;;15.53;11.10;;;;;;;;;;5026860;28;20044;-86
2022/11/27 12:37:44;;;;;;;16.02;11.02;;;;;;;;;;5036722;28;20499;-86
2022/11/27 12:40:28;;;;;;;16.50;11.00;;;;;;;;;;5047464;28;20044;-86
2022/11/27 12:43:03;;;;;;;13.07;9.25;;;;;;;;;;5046887;28;20108;-86
2022/11/27 12:45:32;;;;;;;13.90;9.90;;;;;;;;;;5023397;28;20049;-87
2022/11/27 12:48:00;;;;;;;16.23;10.95;;;;;;;;;;5029216;28;20037;-86
2022/11/27 12:50:29;;;;;;;18.63;12.50;;;;;;;;;;5030707;28;20490;-87
2022/11/27 12:53:14;;;;;;;17.85;11.82;;;;;;;;;;5049378;28;20040;-86
2022/11/27 12:55:41;;;;;;;19.10;12.27;;;;;;;;;;5049559;28;20033;-86
2022/11/27 12:58:09;;;;;;;18.65;12.43;;;;;;;;;;5038583;28;20083;-87
2022/11/27 13:00:36;;;;;;;16.35;10.77;;;;;;;;;;5030273;28;20550;-87
2022/11/27 13:03:02;;;;;;;17.15;11.82;;;;;;;;;;5048372;28;20088;-87
2022/11/27 13:05:28;;;;;;;17.03;12.10;;;;;;;;;;5041083;28;20525;-86
2022/11/27 13:08:03;;;;;;;13.85;9.63;;;;;;;;;;5025102;28;20296;-86
2022/11/27 13:10:37;;;;;;;13.88;9.90;;;;;;;;;;5032708;28;20041;-87
2022/11/27 13:13:13;;;;;;;13.88;9.18;;;;;;;;;;5027968;28;20036;-86
2022/11/27 13:15:43;;;;;;;19.40;12.82;;;;;;;;;;5044729;28;20132;-87
2022/11/27 13:18:11;;;;;;;16.67;11.55;;;;;;;;;;5025973;28;20662;-87
2022/11/27 13:20:38;;;;;;;16.30;11.30;;;;;;;;;;5028714;28;20502;-87
2022/11/27 13:23:03;;;;;;;14.75;10.00;;;;;;;;;;5024649;28;20041;-87
2022/11/27 13:25:30;;;;;;;16.52;11.93;;;;;;;;;;5027094;28;20040;-87
2022/11/27 13:27:57;;;;;;;15.10;10.15;;;;;;;;;;5045154;28;20428;-89
2022/11/27 13:30:27;;;;;;;12.45;9.30;;;;;;;;;;5025656;28;20041;-88
2022/11/27 13:32:54;;;;;;;15.80;10.60;;;;;;;;;;5026353;28;20043;-88
2022/11/27 13:35:26;;;;;;;14.43;9.30;;;;;;;;;;5022634;28;20045;-87
2022/11/27 13:38:11;;;;;;;13.10;8.90;;;;;;;;;;5026720;28;20046;-87
2022/11/27 13:40:43;;;;;;;14.02;9.40;;;;;;;;;;5029535;28;20279;-87
2022/11/27 13:43:31;;;;;;;18.15;11.85;;;;;;;;;;5043761;28;20041;-88
2022/11/27 13:46:04;;;;;;;22.88;14.00;;;;;;;;;;5017292;28;20033;-88
2022/11/27 13:48:35;;;;;;;17.45;11.77;;;;;;;;;;5050504;28;20445;-87
2022/11/27 13:51:00;;;;;;;17.77;12.43;;;;;;;;;;5033554;28;20041;-88
2022/11/27 13:53:34;;;;;;;17.15;11.27;;;;;;;;;;5032706;28;20082;-88
2022/11/27 13:55:59;;;;;;;15.00;9.88;;;;;;;;;;5032993;28;20063;-88
2022/11/27 13:58:28;;;;;;;13.95;9.13;;;;;;;;;;5032098;28;20097;-87
2022/11/27 14:00:53;;;;;;;13.68;9.35;;;;;;;;;;5048030;28;20037;-87
2022/11/27 14:03:25;;;;;;;12.93;9.00;;;;;;;;;;5050602;28;20116;-88
2022/11/27 14:05:50;;;;;;;17.98;10.95;;;;;;;;;;5033036;28;20036;-87
2022/11/27 14:08:20;;;;;;;23.02;15.52;;;;;;;;;;5032051;28;20033;-88
2022/11/27 14:11:06;;;;;;;24.10;14.82;;;;;;;;;;5051135;28;20037;-87
2022/11/27 14:13:34;;;;;;;22.27;14.60;;;;;;;;;;5032006;28;20524;-87
2022/11/27 14:16:03;;;;;;;20.85;13.48;;;;;;;;;;5031012;28;20041;-87
2022/11/27 14:18:29;;;;;;;19.02;13.27;;;;;;;;;;5028711;28;20033;-88
2022/11/27 14:20:56;;;;;;;21.88;14.55;;;;;;;;;;5051686;28;20033;-87
2022/11/27 14:23:26;;;;;;;24.52;15.30;;;;;;;;;;5033794;28;20043;-87
2022/11/27 14:25:59;;;;;;;23.27;15.90;;;;;;;;;;5045765;28;20037;-88
2022/11/27 14:28:25;;;;;;;24.40;16.10;;;;;;;;;;5027182;28;20163;-87
2022/11/27 14:30:54;;;;;;;25.02;15.63;;;;;;;;;;5030294;28;20116;-87
2022/11/27 14:33:29;;;;;;;23.88;16.48;;;;;;;;;;5029199;28;20123;-87
2022/11/27 14:35:55;;;;;;;23.25;14.95;;;;;;;;;;5026039;28;20028;-87